Time;durP1;ratioP1;P1;durP2;ratioP2;P2;SDS_P1;SDS_P2;PMS_P1;PMS_P2;Temp;Humidity;BMP_temperature;BMP_pressure;BME280_temperature;BME280_humidity;BME280_pressure;Samples;Min_cycle;Max_cycle;Signal;HPM_P1;HPM_P2
2021/07/14 00:11:52;;;;;;;4.72;2.15;;;;;;;16.98;66.35;101479.44;1223206;22;21950;-84
2021/07/14 00:33:32;;;;;;;7.43;3.00;;;;;;;16.85;68.88;101448.25;1141956;22;20177;-84
2021/07/14 00:39:32;;;;;;;6.70;2.75;;;;;;;16.84;67.84;101446.53;1217143;22;21439;-83
2021/07/14 01:25:08;;;;;;;5.95;2.60;;;;;;;16.63;68.43;101465.75;1212710;23;21469;-84
2021/07/14 01:28:01;;;;;;;6.30;2.65;;;;;;;16.58;68.75;101463.28;1209553;23;21422;-84
2021/07/14 01:33:56;;;;;;;5.93;2.35;;;;;;;16.48;68.97;101461.88;1219019;22;21576;-84
2021/07/14 01:55:22;;;;;;;7.00;2.90;;;;;;;16.19;69.00;101462.03;1226540;22;21432;-85
2021/07/14 02:10:39;;;;;;;5.88;2.45;;;;;;;16.05;69.14;101462.47;1224161;22;21458;-86
2021/07/14 02:28:58;;;;;;;5.40;2.10;;;;;;;15.85;69.42;101467.53;1220676;22;21415;-84
2021/07/14 02:34:58;;;;;;;4.28;2.00;;;;;;;15.80;71.07;101471.16;1146943;22;20267;-84
2021/07/14 02:38:09;;;;;;;5.72;2.60;;;;;;;15.78;69.90;101483.53;1211016;22;21482;-84
2021/07/14 03:17:56;;;;;;;5.90;2.58;;;;;;;15.41;70.93;101477.63;1219636;22;21510;-84
2021/07/14 03:33:28;;;;;;;6.13;2.83;;;;;;;15.28;71.74;101478.03;1150686;22;20196;-85
2021/07/14 03:42:22;;;;;;;5.25;2.15;;;;;;;15.26;71.02;101471.09;1227236;22;21906;-85
2021/07/14 04:00:49;;;;;;;7.63;2.72;;;;;;;15.25;71.72;101493.88;1221279;22;21410;-84
2021/07/14 04:06:35;;;;;;;7.35;2.88;;;;;;;15.24;71.70;101489.53;1218414;22;22062;-84
2021/07/14 04:33:49;;;;;;;4.68;2.03;;;;;;;15.16;72.79;101496.81;1149723;22;20172;-84
2021/07/14 04:52:04;;;;;;;7.40;2.50;;;;;;;15.05;72.14;101518.16;1224469;22;21905;-84
2021/07/14 05:04:20;;;;;;;7.00;2.70;;;;;;;15.02;72.58;101533.16;1215421;23;22085;-85
2021/07/14 05:07:14;;;;;;;6.47;2.60;;;;;;;15.04;72.95;101532.19;1220077;22;21469;-86
2021/07/14 05:34:42;;;;;;;7.15;2.33;;;;;;;15.68;75.04;101545.31;1147541;22;20177;-84
2021/07/14 05:40:42;;;;;;;4.28;2.08;;;;;;;15.92;73.81;101533.16;1221792;22;21435;-84
2021/07/14 05:43:34;;;;;;;8.35;2.70;;;;;;;16.02;73.73;101533.72;1211951;22;21464;-84
2021/07/14 05:58:50;;;;;;;5.32;2.40;;;;;;;16.46;73.10;101560.38;1220848;22;21961;-85
2021/07/14 06:43:48;;;;;;;5.70;2.30;;;;;;;17.43;71.97;101597.47;1216865;22;21910;-84
2021/07/14 06:52:50;;;;;;;6.03;2.42;;;;;;;17.49;72.25;101597.25;3757922;22;20036;-82
2021/07/14 06:55:43;;;;;;;7.97;2.20;;;;;;;17.52;72.08;101602.41;1214386;22;21380;-84
2021/07/14 07:07:39;;;;;;;4.25;1.80;;;;;;;17.69;72.08;101594.72;1225725;22;21457;-84
2021/07/14 07:13:25;;;;;;;5.47;2.47;;;;;;;17.80;72.50;101582.00;1223071;22;21474;-85
2021/07/14 07:16:17;;;;;;;5.47;2.40;;;;;;;17.89;72.31;101586.91;1217858;22;21424;-84
2021/07/14 07:28:32;;;;;;;4.55;1.98;;;;;;;18.24;71.72;101600.50;1221530;22;21431;-83
2021/07/14 07:31:25;;;;;;;5.60;2.35;;;;;;;18.32;72.16;101606.34;1224652;22;21494;-84
2021/07/14 07:40:22;;;;;;;5.72;2.00;;;;;;;18.65;71.60;101613.81;1218300;22;22064;-84
2021/07/14 07:43:14;;;;;;;4.75;2.25;;;;;;;18.75;71.47;101611.66;1213387;22;21379;-84
2021/07/14 07:52:09;;;;;;;4.32;1.83;;;;;;;19.08;71.05;101622.63;1221537;22;21458;-83
2021/07/14 08:00:55;;;;;;;5.72;2.20;;;;;;;19.39;69.78;101622.97;1219199;22;21458;-83
2021/07/14 08:25:27;;;;;;;3.55;1.80;;;;;;;20.52;67.85;101626.56;1219412;22;21459;-83
2021/07/14 08:34:28;;;;;;;3.95;1.70;;;;;;;20.86;66.48;101629.25;1146640;22;20178;-84
2021/07/14 08:52:54;;;;;;;3.22;1.73;;;;;;;21.43;65.51;101619.22;1215218;22;21474;-84
2021/07/14 09:05:02;;;;;;;3.58;1.85;;;;;;;21.82;63.68;101625.97;1222415;22;21513;-83
2021/07/14 09:07:54;;;;;;;3.85;1.77;;;;;;;21.91;64.31;101622.81;1210467;22;22040;-84
2021/07/14 09:16:48;;;;;;;2.85;1.50;;;;;;;22.22;63.27;101605.16;1220498;22;21466;-84
2021/07/14 09:19:26;;;;;;;2.28;1.27;;;;;;;22.27;61.95;101597.75;3683709;22;20028;-84
2021/07/14 09:34:36;;;;;;;4.18;1.45;;;;;;;22.83;61.91;101596.25;1263070;22;21443;-84
2021/07/14 09:55:28;;;;;;;2.13;1.20;;;;;;;24.44;57.53;101605.69;1214956;22;21415;-84
2021/07/14 10:04:24;;;;;;;1.70;0.82;;;;;;;24.76;57.17;101600.00;1222383;22;21517;-83
2021/07/14 10:09:50;;;;;;;1.05;0.70;;;;;;;25.48;52.88;101582.47;3616606;39;20024;-85
2021/07/14 10:18:17;;;;;;;0.55;0.40;;;;;;;26.43;47.71;101591.63;3602708;40;20446;-85
2021/07/14 10:20:46;;;;;;;1.42;0.50;;;;;;;26.70;49.40;101582.44;3595682;40;20036;-85
2021/07/14 10:23:16;;;;;;;1.02;0.50;;;;;;;27.07;48.66;101597.44;3606132;39;20365;-85
2021/07/14 10:25:45;;;;;;;2.35;0.80;;;;;;;27.40;46.81;101593.91;3586140;40;20440;-85
2021/07/14 10:28:19;;;;;;;0.82;0.60;;;;;;;27.79;45.92;101590.88;3603966;39;20039;-85
2021/07/14 10:30:49;;;;;;;1.30;0.75;;;;;;;27.98;45.77;101584.81;3592703;40;20053;-85
2021/07/14 10:33:20;;;;;;;0.80;0.70;;;;;;;28.25;45.91;101600.50;3566257;40;20070;-85
2021/07/14 10:38:45;;;;;;;0.88;0.60;;;;;;;28.38;46.93;101598.53;3648983;22;20064;-85
2021/07/14 10:41:13;;;;;;;1.05;0.77;;;;;;;28.29;44.90;101567.03;3615371;39;20031;-85
2021/07/14 10:43:43;;;;;;;1.02;0.70;;;;;;;28.78;43.52;101598.69;3584561;40;20489;-85
2021/07/14 10:46:28;;;;;;;1.55;0.95;;;;;;;29.12;44.66;101595.81;3602449;39;20113;-85
2021/07/14 10:51:42;;;;;;;1.15;0.82;;;;;;;29.07;41.06;101572.00;3612083;39;20093;-86
2021/07/14 10:54:10;;;;;;;;;;;;;;;29.60;48.82;101596.06;3610278;39;20039;-85
2021/07/14 10:59:23;;;;;;;1.00;0.80;;;;;;;29.69;39.54;101603.31;3621842;39;20054;-86
2021/07/14 11:01:52;;;;;;;1.45;0.80;;;;;;;29.83;40.31;101591.31;3594503;40;20037;-85
2021/07/14 11:04:25;;;;;;;0.95;0.80;;;;;;;30.06;43.06;101593.72;3599972;40;20077;-85
2021/07/14 11:07:03;;;;;;;0.80;0.65;;;;;;;30.27;42.59;101588.28;3565561;40;20060;-85
2021/07/14 11:09:36;;;;;;;0.65;0.60;;;;;;;30.48;41.56;101583.59;3567622;40;20377;-85
2021/07/14 11:12:04;;;;;;;2.50;0.80;;;;;;;30.70;38.70;101583.28;3545068;40;20065;-85
2021/07/14 11:14:40;;;;;;;0.80;0.70;;;;;;;31.16;40.88;101592.41;3559681;40;20093;-86
2021/07/14 11:17:10;;;;;;;1.10;0.80;;;;;;;31.36;37.30;101584.28;3559687;40;20460;-84
2021/07/14 11:19:50;;;;;;;1.80;0.70;;;;;;;31.56;40.15;101588.56;3582592;40;20493;-85
2021/07/14 11:22:47;;;;;;;0.73;0.70;;;;;;;31.87;40.63;101591.00;3592097;39;20083;-85
2021/07/14 11:25:21;;;;;;;0.65;0.60;;;;;;;32.09;37.40;101585.16;3596900;39;20076;-85
2021/07/14 11:27:57;;;;;;;0.65;0.60;;;;;;;32.27;34.99;101588.69;3590721;39;20059;-85
2021/07/14 11:30:29;;;;;;;3.13;0.70;;;;;;;32.56;36.55;101566.00;3580122;39;20063;-85
2021/07/14 11:33:00;;;;;;;0.93;0.75;;;;;;;32.93;34.11;101597.38;3586477;39;20039;-84
2021/07/14 11:35:38;;;;;;;0.68;0.63;;;;;;;33.15;35.82;101605.00;3600456;39;20140;-85
2021/07/14 11:38:17;;;;;;;1.10;0.77;;;;;;;33.18;35.99;101598.38;3549807;39;20083;-85
2021/07/14 11:40:51;;;;;;;0.93;0.75;;;;;;;32.97;35.04;101606.91;3606647;39;24568;-86
2021/07/14 11:43:23;;;;;;;0.93;0.77;;;;;;;32.66;35.20;101609.19;3604449;39;20064;-85
2021/07/14 11:45:56;;;;;;;1.70;0.90;;;;;;;32.41;34.70;101605.41;3567097;40;20049;-86
2021/07/14 11:48:26;;;;;;;0.98;0.70;;;;;;;32.17;35.95;101604.13;3590244;22;20060;-85
2021/07/14 11:51:19;;;;;;;1.10;0.77;;;;;;;32.15;34.97;101606.16;3582390;40;20032;-85
2021/07/14 11:53:49;;;;;;;1.38;1.00;;;;;;;32.13;35.86;101602.75;3553189;40;20069;-85
2021/07/14 11:56:38;;;;;;;2.45;0.80;;;;;;;32.38;36.62;101613.81;3543472;40;20052;-85
2021/07/14 11:59:18;;;;;;;1.67;0.80;;;;;;;32.52;36.25;101613.28;3553643;40;20467;-85
2021/07/14 12:01:59;;;;;;;0.90;0.57;;;;;;;32.64;36.42;101603.91;3531419;40;20068;-85
2021/07/14 12:04:28;;;;;;;1.80;0.80;;;;;;;32.72;32.79;101585.03;3565914;40;20048;-85
2021/07/14 12:07:14;;;;;;;1.30;0.90;;;;;;;33.33;36.22;101606.75;3588866;39;20083;-85
2021/07/14 12:09:42;;;;;;;;;;;;;;;33.78;39.46;101611.88;3603019;39;20104;-85
2021/07/14 12:12:17;;;;;;;2.55;0.90;;;;;;;33.83;33.94;101577.88;3587100;39;19989;-85
2021/07/14 12:14:51;;;;;;;1.45;1.00;;;;;;;34.24;33.75;101607.78;3595626;39;20059;-85
2021/07/14 12:17:25;;;;;;;1.80;1.00;;;;;;;34.38;32.25;101608.16;3589444;39;20044;-85
2021/07/14 12:19:57;;;;;;;1.63;0.80;;;;;;;34.36;31.78;101611.00;3580081;39;20504;-86
2021/07/14 12:22:31;;;;;;;1.50;0.90;;;;;;;34.19;31.71;101603.88;3586164;39;20669;-85
2021/07/14 12:25:14;;;;;;;2.88;1.10;;;;;;;34.18;33.20;101619.31;3590916;39;20048;-85
2021/07/14 12:27:45;;;;;;;1.27;0.82;;;;;;;34.12;30.71;101622.69;3563813;39;20064;-85
2021/07/14 12:30:21;;;;;;;1.10;0.75;;;;;;;34.15;32.51;101630.47;3553092;40;20055;-85
2021/07/14 12:32:52;;;;;;;2.95;0.90;;;;;;;34.17;31.10;101623.03;3596766;39;20051;-85
2021/07/14 12:35:45;;;;;;;2.30;0.80;;;;;;;34.40;34.97;101634.06;3571838;39;20110;-85
2021/07/14 12:38:15;;;;;;;2.17;0.70;;;;;;;34.46;31.45;101627.16;3584297;39;20044;-84
2021/07/14 12:40:45;;;;;;;1.00;0.63;;;;;;;34.52;30.83;101621.03;3603396;39;20076;-85
2021/07/14 12:43:17;;;;;;;1.00;0.70;;;;;;;34.65;31.27;101617.81;3597699;39;20053;-86
2021/07/14 12:45:49;;;;;;;1.00;0.68;;;;;;;34.68;30.82;101634.63;3579748;39;20063;-84
2021/07/14 12:48:21;;;;;;;1.73;0.90;;;;;;;34.66;29.61;101631.22;3591562;39;20052;-85
2021/07/14 12:50:53;;;;;;;2.05;0.82;;;;;;;34.64;29.90;101625.13;3590146;39;20059;-85
2021/07/14 12:53:25;;;;;;;1.45;0.80;;;;;;;34.67;30.91;101640.19;3600079;39;20051;-84
2021/07/14 12:55:57;;;;;;;1.02;0.80;;;;;;;34.46;28.11;101600.88;3587992;39;20081;-85
2021/07/14 12:58:25;;;;;;;0.95;0.60;;;;;;;34.63;29.68;101623.44;3607319;39;20573;-85
2021/07/14 13:01:02;;;;;;;1.95;0.63;;;;;;;34.79;30.78;101625.28;3604826;39;20047;-85
2021/07/14 13:03:31;;;;;;;3.22;0.80;;;;;;;34.89;28.32;101616.97;3607195;39;20056;-85
2021/07/14 13:06:08;;;;;;;0.60;0.60;;;;;;;35.04;31.90;101615.28;3599479;39;20128;-84
2021/07/14 13:08:38;;;;;;;2.50;0.80;;;;;;;35.14;30.00;101632.22;3603307;39;20095;-85
2021/07/14 13:11:06;;;;;;;1.40;0.80;;;;;;;35.27;28.95;101627.06;3604579;39;20055;-85
2021/07/14 13:13:35;;;;;;;0.95;0.63;;;;;;;35.47;28.56;101629.41;3597678;39;20635;-85
2021/07/14 13:16:05;;;;;;;1.50;0.80;;;;;;;35.60;28.89;101613.41;3606671;39;20054;-85
2021/07/14 13:18:38;;;;;;;1.25;0.88;;;;;;;35.80;29.84;101624.69;3597334;39;20056;-84
2021/07/14 13:21:20;;;;;;;1.73;0.77;;;;;;;35.98;30.86;101624.44;3612235;39;20060;-84
2021/07/14 13:23:46;;;;;;;1.80;1.00;;;;;;;35.93;27.75;101621.38;3604688;39;20067;-84
2021/07/14 13:26:20;;;;;;;5.38;1.00;;;;;;;36.10;29.35;101618.44;3602550;39;20099;-83
2021/07/14 13:28:49;;;;;;;2.00;0.80;;;;;;;36.14;27.91;101624.31;3604232;39;20092;-85
2021/07/14 13:31:25;;;;;;;1.58;0.90;;;;;;;36.25;29.66;101620.38;3607550;39;20043;-85
2021/07/14 13:34:15;;;;;;;1.17;0.80;;;;;;;36.42;29.50;101618.41;3592413;39;20047;-85
2021/07/14 13:36:43;;;;;;;2.85;0.70;;;;;;;36.42;26.00;101608.34;3587645;39;20100;-85
2021/07/14 13:39:17;;;;;;;4.20;1.00;;;;;;;36.55;28.03;101614.03;3606549;39;20079;-85
2021/07/14 13:41:46;;;;;;;1.35;0.85;;;;;;;36.47;26.69;101611.38;3615572;39;20059;-85
2021/07/14 13:44:27;;;;;;;1.73;1.00;;;;;;;36.69;28.97;101612.34;3608549;39;20059;-85
2021/07/14 13:47:03;;;;;;;1.33;0.80;;;;;;;36.70;28.49;101608.63;3605044;39;20310;-84
2021/07/14 13:49:36;;;;;;;1.73;0.85;;;;;;;36.82;27.40;101612.59;3600924;39;20060;-85
2021/07/14 13:52:03;;;;;;;1.00;0.75;;;;;;;36.91;25.30;101605.22;3607306;39;20444;-85
2021/07/14 13:54:33;;;;;;;1.08;0.82;;;;;;;37.17;25.54;101610.22;3606950;39;20096;-85
2021/07/14 13:57:04;;;;;;;1.50;0.90;;;;;;;37.45;25.66;101615.00;3606032;39;20515;-84
2021/07/14 13:59:35;;;;;;;2.38;0.77;;;;;;;37.58;26.58;101607.00;3607697;39;20066;-85
2021/07/14 14:02:09;;;;;;;1.70;1.00;;;;;;;37.68;24.16;101618.47;3607216;39;20051;-85
2021/07/14 14:04:43;;;;;;;2.70;1.00;;;;;;;37.91;26.97;101619.16;3596601;39;20139;-85
2021/07/14 14:07:18;;;;;;;2.05;0.88;;;;;;;38.04;25.93;101618.47;3611636;39;20192;-84
2021/07/14 14:09:50;;;;;;;1.95;0.85;;;;;;;38.17;25.65;101613.19;3606954;39;20092;-85
2021/07/14 14:12:25;;;;;;;3.63;1.00;;;;;;;38.36;25.56;101617.13;3599812;39;20146;-85
2021/07/14 14:14:54;;;;;;;4.03;1.20;;;;;;;38.36;23.90;101598.03;3592648;39;20063;-84
2021/07/14 14:17:25;;;;;;;2.35;1.17;;;;;;;38.54;24.60;101604.94;3595530;39;20050;-84
2021/07/14 14:19:55;;;;;;;3.70;1.02;;;;;;;38.53;23.69;101605.97;3606027;39;20337;-84
2021/07/14 14:22:25;;;;;;;1.98;1.13;;;;;;;38.62;23.46;101604.75;3603220;39;20036;-85
2021/07/14 14:24:58;;;;;;;1.38;0.90;;;;;;;38.53;24.31;101600.50;3599211;39;20111;-85
2021/07/14 14:27:44;;;;;;;2.03;1.10;;;;;;;38.49;23.59;101604.69;3601383;39;20059;-84
2021/07/14 14:30:16;;;;;;;1.75;0.88;;;;;;;38.53;23.64;101601.34;3596706;39;20072;-84
2021/07/14 14:32:50;;;;;;;2.08;0.95;;;;;;;38.70;24.80;101607.38;3605111;39;20125;-85
2021/07/14 14:35:18;;;;;;;1.55;1.05;;;;;;;38.73;23.58;101596.06;3594540;39;20112;-85
2021/07/14 14:37:46;;;;;;;1.85;1.00;;;;;;;38.81;22.66;101587.72;3606490;39;20056;-85
2021/07/14 14:40:16;;;;;;;1.40;1.05;;;;;;;39.01;24.16;101593.31;3606961;39;20084;-85
2021/07/14 14:42:43;;;;;;;1.52;0.90;;;;;;;38.97;23.24;101591.19;3602854;39;20092;-85
2021/07/14 14:45:11;;;;;;;2.17;1.23;;;;;;;39.04;23.07;101586.63;3607889;39;20803;-85
2021/07/14 14:47:39;;;;;;;2.15;1.10;;;;;;;39.14;23.59;101589.84;3588696;39;20076;-85
2021/07/14 14:50:06;;;;;;;1.80;1.10;;;;;;;39.20;22.78;101599.13;3591282;39;20060;-84
2021/07/14 14:52:34;;;;;;;2.53;1.10;;;;;;;39.21;22.79;101598.94;3606557;39;20558;-85
2021/07/14 14:55:05;;;;;;;2.17;1.20;;;;;;;39.13;24.02;101574.47;3604855;39;20096;-85
2021/07/14 14:57:34;;;;;;;1.63;1.08;;;;;;;39.25;23.79;101594.75;3599665;39;20048;-85
2021/07/14 15:00:04;;;;;;;1.88;1.00;;;;;;;39.26;23.48;101584.66;3605164;39;20051;-85
2021/07/14 15:02:32;;;;;;;2.03;1.17;;;;;;;39.06;23.49;101582.63;3604131;39;20079;-85
2021/07/14 15:05:06;;;;;;;1.90;1.08;;;;;;;39.18;24.78;101593.81;3604307;39;20459;-85
2021/07/14 15:07:43;;;;;;;1.80;1.10;;;;;;;39.16;25.37;101574.91;3605812;39;20464;-84
2021/07/14 15:10:14;;;;;;;2.45;1.20;;;;;;;39.14;22.88;101587.09;3601528;39;20051;-85
2021/07/14 15:12:45;;;;;;;2.10;1.10;;;;;;;39.32;25.24;101590.16;3604175;39;20107;-85
2021/07/14 15:15:15;;;;;;;1.88;1.00;;;;;;;39.42;24.18;101585.16;3594208;39;20051;-84
2021/07/14 15:17:43;;;;;;;1.88;1.00;;;;;;;39.48;23.88;101566.25;3607887;39;20052;-85
2021/07/14 15:20:12;;;;;;;2.30;1.08;;;;;;;39.65;24.32;101579.41;3601896;39;20067;-85
2021/07/14 15:22:40;;;;;;;1.80;1.15;;;;;;;39.84;23.38;101582.38;3597264;39;20066;-85
2021/07/14 15:25:13;;;;;;;2.90;1.10;;;;;;;39.90;23.13;101574.19;3605082;39;20091;-85
2021/07/14 15:30:30;;;;;;;2.85;1.10;;;;;;;39.46;23.24;101563.72;3601678;39;20417;-85
2021/07/14 15:32:57;;;;;;;1.30;0.90;;;;;;;39.26;23.69;101573.72;3601179;39;20374;-85
2021/07/14 15:35:34;;;;;;;2.55;1.20;;;;;;;39.14;25.05;101578.91;3606175;39;20068;-86
2021/07/14 15:38:02;;;;;;;1.67;1.10;;;;;;;38.78;25.12;101582.69;3593559;39;20075;-85
2021/07/14 15:40:30;;;;;;;3.25;0.90;;;;;;;38.51;25.04;101587.03;3601544;39;20512;-86
2021/07/14 15:42:57;;;;;;;1.95;1.17;;;;;;;38.17;25.05;101563.19;3606887;39;20693;-85
2021/07/14 15:45:26;;;;;;;1.40;0.98;;;;;;;38.09;25.98;101593.34;3601341;39;20112;-85
2021/07/14 15:47:58;;;;;;;1.55;1.02;;;;;;;37.82;26.28;101595.78;3609918;39;20431;-85
2021/07/14 15:50:24;;;;;;;1.83;0.88;;;;;;;37.51;26.36;101600.63;3594276;39;20102;-85
2021/07/14 15:52:51;;;;;;;3.08;0.98;;;;;;;37.14;26.51;101573.28;3599309;39;20050;-85
2021/07/14 15:55:19;;;;;;;2.45;1.20;;;;;;;37.01;27.05;101585.88;3610388;39;20424;-85
2021/07/14 15:57:46;;;;;;;3.15;1.23;;;;;;;36.98;26.76;101591.69;3607709;39;20048;-85
2021/07/14 16:00:16;;;;;;;2.50;1.08;;;;;;;36.76;27.40;101597.00;3607391;39;21646;-85
2021/07/14 16:02:45;;;;;;;1.88;0.95;;;;;;;36.48;28.24;101604.06;3578370;39;20065;-85
2021/07/14 16:05:13;;;;;;;3.70;1.30;;;;;;;36.12;28.65;101610.06;3592985;39;20047;-85
2021/07/14 16:07:41;;;;;;;1.92;1.08;;;;;;;35.71;28.57;101602.13;3597365;39;20051;-85
2021/07/14 16:10:12;;;;;;;2.15;1.00;;;;;;;35.40;29.68;101598.53;3604269;39;20055;-85
2021/07/14 16:12:43;;;;;;;4.43;1.05;;;;;;;35.09;29.25;101607.44;3590808;39;20042;-85
2021/07/14 16:15:12;;;;;;;2.92;0.90;;;;;;;34.73;31.23;101602.41;3604749;39;20077;-84
2021/07/14 16:17:41;;;;;;;1.65;1.00;;;;;;;34.57;31.25;101608.69;3593048;39;20099;-85
2021/07/14 16:20:09;;;;;;;1.80;1.02;;;;;;;34.39;31.35;101607.97;3605070;39;20099;-85
2021/07/14 16:22:37;;;;;;;2.03;1.08;;;;;;;34.18;31.39;101613.88;3596369;39;20051;-85
2021/07/14 16:25:07;;;;;;;2.90;1.30;;;;;;;34.05;31.41;101618.94;3567620;39;20457;-85
2021/07/14 16:27:36;;;;;;;1.88;1.05;;;;;;;33.82;32.08;101619.53;3609552;39;20535;-85
2021/07/14 16:30:08;;;;;;;2.70;1.10;;;;;;;33.59;32.20;101612.16;3586673;39;20086;-85
2021/07/14 16:32:36;;;;;;;2.63;1.20;;;;;;;33.37;32.61;101619.81;3607044;39;20043;-86
2021/07/14 16:35:07;;;;;;;3.13;1.20;;;;;;;33.18;33.36;101620.88;3608843;39;20083;-86
2021/07/14 16:37:37;;;;;;;4.32;1.65;;;;;;;32.96;33.32;101616.03;3609349;39;20059;-85
2021/07/14 16:40:09;;;;;;;2.10;1.30;;;;;;;32.73;33.72;101613.78;3624650;39;20028;-86
2021/07/14 16:42:47;;;;;;;2.92;1.00;;;;;;;32.53;34.13;101609.56;3601860;39;20032;-86
2021/07/14 16:45:15;;;;;;;2.47;1.10;;;;;;;32.27;35.17;101614.88;3607361;39;20047;-85
2021/07/14 16:47:44;;;;;;;1.55;1.00;;;;;;;32.09;35.06;101622.13;3613314;39;20028;-86
2021/07/14 16:56:45;;;;;;;2.80;1.20;;;;;;;31.76;36.43;101619.88;3680558;22;20048;-85
2021/07/14 17:02:30;;;;;;;2.33;1.33;;;;;;;31.57;36.36;101624.53;3635924;22;20043;31
2021/07/14 17:04:57;;;;;;;2.65;0.95;;;;;;;31.29;36.91;101607.47;3598086;40;20024;-85
2021/07/14 17:07:55;;;;;;;2.15;1.05;;;;;;;31.31;36.93;101627.06;3643010;22;20080;-85
2021/07/14 17:10:29;;;;;;;2.33;1.13;;;;;;;31.15;36.97;101625.78;3573591;40;20078;-85
2021/07/14 17:12:56;;;;;;;3.25;1.20;;;;;;;30.85;38.16;101599.03;3580692;40;20033;-86
2021/07/14 17:18:15;;;;;;;2.25;1.10;;;;;;;30.67;38.79;101625.88;3572853;40;20041;-86
2021/07/14 17:20:47;;;;;;;2.05;1.10;;;;;;;30.46;39.05;101615.22;3559689;40;20526;-85
2021/07/14 17:23:39;;;;;;;1.70;1.00;;;;;;;30.38;37.97;101628.56;3579799;22;20047;-85
2021/07/14 17:26:08;;;;;;;3.28;0.95;;;;;;;30.14;39.22;101616.34;3728533;22;20655;-85
2021/07/14 17:31:40;;;;;;;2.45;0.90;;;;;;;29.89;39.69;101627.59;3747936;22;20048;-85
2021/07/14 17:39:58;;;;;;;1.63;1.00;;;;;;;29.35;41.53;101618.00;3723605;22;20039;-84
2021/07/14 17:42:50;;;;;;;1.77;0.85;;;;;;;29.33;40.66;101614.59;1216192;22;21465;-84
2021/07/14 17:48:36;;;;;;;2.28;0.90;;;;;;;29.49;42.00;101620.34;3727492;22;20036;-85
2021/07/14 18:05:22;;;;;;;1.85;1.00;;;;;;;30.74;40.33;101625.16;3576189;40;20405;-80
2021/07/14 18:07:50;;;;;;;3.17;1.15;;;;;;;30.87;39.99;101613.22;3572806;40;20064;-80
2021/07/14 18:10:19;;;;;;;2.10;1.10;;;;;;;31.05;39.89;101616.88;3553090;40;20056;-80
2021/07/14 18:12:50;;;;;;;3.75;1.42;;;;;;;31.18;39.78;101614.72;3560995;40;20059;-79
2021/07/14 18:15:17;;;;;;;3.50;1.20;;;;;;;31.22;39.01;101613.41;3574268;40;20497;-79
2021/07/14 18:17:46;;;;;;;3.25;1.00;;;;;;;31.32;39.04;101615.25;3581246;40;20079;-80
2021/07/14 18:20:15;;;;;;;3.78;1.60;;;;;;;31.43;39.03;101620.50;3583193;40;20053;-80
2021/07/14 18:22:43;;;;;;;2.08;1.20;;;;;;;31.48;38.84;101619.03;3569089;40;20059;-80
2021/07/14 18:25:11;;;;;;;3.53;1.10;;;;;;;31.49;38.94;101614.50;3583605;40;20130;-80
2021/07/14 18:27:41;;;;;;;2.83;1.13;;;;;;;31.54;38.65;101617.59;3573858;40;21625;-80
2021/07/14 18:30:13;;;;;;;3.95;1.10;;;;;;;31.54;39.05;101619.44;3561850;40;20059;-80
2021/07/14 18:32:40;;;;;;;2.63;1.05;;;;;;;31.34;39.02;101606.03;3584471;39;20079;-79
2021/07/14 18:35:08;;;;;;;3.42;1.00;;;;;;;31.43;38.93;101634.00;3594886;39;20092;-80
2021/07/14 18:37:35;;;;;;;1.55;0.95;;;;;;;31.26;38.75;101625.63;3598710;39;20051;-80
2021/07/14 18:40:04;;;;;;;1.90;0.98;;;;;;;31.15;38.63;101628.50;3596023;39;20060;-79
2021/07/14 18:42:31;;;;;;;1.33;0.93;;;;;;;30.91;39.44;101631.66;3594809;39;20067;-73
2021/07/14 18:44:58;;;;;;;1.90;1.10;;;;;;;30.64;40.02;101639.63;3581352;39;20059;-74
2021/07/14 18:47:25;;;;;;;1.77;1.15;;;;;;;30.36;40.40;101635.91;3585091;39;20048;-74
2021/07/14 18:49:53;;;;;;;1.75;1.00;;;;;;;30.13;41.44;101652.34;3594961;39;20047;-75
2021/07/14 18:52:20;;;;;;;1.98;1.20;;;;;;;29.92;42.00;101648.88;3587420;39;20067;-75
2021/07/14 18:54:47;;;;;;;2.88;1.60;;;;;;;29.72;41.85;101654.19;3576661;39;20063;-75
2021/07/14 18:57:15;;;;;;;2.28;1.20;;;;;;;29.58;42.64;101651.00;3588656;39;20915;-75
2021/07/14 18:59:42;;;;;;;1.92;1.25;;;;;;;29.41;43.02;101656.00;3589218;39;20051;-75
2021/07/14 19:02:09;;;;;;;;;;;;;;;29.35;40.79;101651.19;3582691;39;20056;-74
2021/07/14 19:04:36;;;;;;;2.40;1.17;;;;;;;29.13;43.70;101651.31;3587243;39;19942;-75
2021/07/14 19:07:03;;;;;;;1.05;0.82;;;;;;;28.99;43.70;101649.81;3587519;39;20085;-74
2021/07/14 19:09:30;;;;;;;1.70;1.00;;;;;;;28.84;43.83;101654.66;3586734;39;20514;-74
2021/07/14 19:11:59;;;;;;;1.40;0.90;;;;;;;28.67;44.19;101658.75;993750;39;10021845;-74
2021/07/14 19:14:26;;;;;;;3.97;1.40;;;;;;;28.57;45.27;101657.81;3322519;40;10001083;-75
2021/07/14 19:16:53;;;;;;;2.05;1.15;;;;;;;28.46;45.28;101657.00;3577240;40;20403;-75
2021/07/14 19:19:20;;;;;;;3.45;1.30;;;;;;;28.35;44.99;101657.91;3563102;40;20072;-75
2021/07/14 19:21:47;;;;;;;1.88;1.20;;;;;;;28.26;45.33;101661.31;3577661;40;20056;-75
2021/07/14 19:24:14;;;;;;;2.83;1.17;;;;;;;28.17;46.01;101663.75;3562189;40;20160;-75
2021/07/14 19:26:42;;;;;;;2.55;1.15;;;;;;;28.08;45.72;101653.78;3574190;40;20053;-75
2021/07/14 19:29:12;;;;;;;2.20;1.30;;;;;;;28.01;46.16;101657.94;3573688;40;20057;-74
2021/07/14 19:31:39;;;;;;;2.25;1.20;;;;;;;27.89;46.58;101659.78;3559526;40;20063;-74
2021/07/14 19:34:09;;;;;;;2.10;1.20;;;;;;;27.76;46.88;101659.06;3577522;40;20052;-75
2021/07/14 19:36:36;;;;;;;1.75;1.10;;;;;;;27.67;46.56;101657.91;3554388;40;20060;-75
2021/07/14 19:39:04;;;;;;;2.13;1.27;;;;;;;27.59;47.32;101657.69;3577878;40;20048;-75
2021/07/14 19:41:32;;;;;;;2.33;1.30;;;;;;;27.48;47.06;101660.38;3570233;40;20072;-75
2021/07/14 19:43:59;;;;;;;3.03;1.48;;;;;;;27.40;47.76;101652.06;3579180;40;20048;-75
2021/07/14 19:46:26;;;;;;;1.50;0.98;;;;;;;27.33;48.09;101661.59;3577608;40;20047;-75
2021/07/14 19:48:53;;;;;;;;;;;;;;;27.31;45.72;101663.50;3577321;40;20119;-74
2021/07/14 19:51:20;;;;;;;1.50;1.10;;;;;;;27.23;47.94;101665.97;3578157;40;20312;-75
2021/07/14 19:53:47;;;;;;;3.63;1.27;;;;;;;27.18;48.56;101662.78;3578250;40;20697;-75
2021/07/14 19:56:14;;;;;;;1.45;1.10;;;;;;;27.12;48.53;101662.28;3562501;40;20082;-75
2021/07/14 19:58:44;;;;;;;1.80;0.98;;;;;;;27.10;48.51;101664.22;3577567;40;20053;-75
2021/07/14 20:01:16;;;;;;;2.50;1.33;;;;;;;27.07;48.86;101667.16;3564925;40;20064;-74
2021/07/14 20:03:46;;;;;;;2.85;1.30;;;;;;;27.03;48.55;101670.16;3577451;40;20072;-74
2021/07/14 20:06:15;;;;;;;1.42;1.10;;;;;;;26.96;49.31;101672.41;3563786;40;20064;-75
2021/07/14 20:08:42;;;;;;;1.90;1.08;;;;;;;26.90;48.94;101681.78;3565728;40;20045;-74
2021/07/14 20:11:10;;;;;;;3.42;1.33;;;;;;;26.85;49.46;101686.66;3578445;40;20390;-75
2021/07/14 20:13:38;;;;;;;1.98;1.23;;;;;;;26.78;50.38;101679.19;3564827;40;20444;-75
2021/07/14 20:16:05;;;;;;;2.33;1.40;;;;;;;26.73;50.13;101684.91;3580206;40;20041;-75
2021/07/14 20:18:32;;;;;;;2.78;1.42;;;;;;;26.67;49.92;101682.69;3570334;40;20056;-75
2021/07/14 20:21:00;;;;;;;2.90;1.10;;;;;;;26.62;49.78;101688.41;3564760;40;20499;-75
2021/07/14 20:23:27;;;;;;;2.35;1.27;;;;;;;26.55;50.17;101686.28;3579561;40;20040;-75
2021/07/14 20:25:54;;;;;;;2.60;1.48;;;;;;;26.52;50.35;101687.38;3579038;40;20083;-74
2021/07/14 20:28:21;;;;;;;3.03;1.17;;;;;;;26.48;50.63;101690.38;3578024;40;20141;-75
2021/07/14 20:30:48;;;;;;;;;;;;;;;26.50;48.38;101689.28;3579503;40;20048;-74
2021/07/14 20:33:15;;;;;;;2.88;1.60;;;;;;;26.43;50.72;101696.09;3573524;40;19936;-75
2021/07/14 20:35:43;;;;;;;1.73;1.10;;;;;;;26.41;50.28;101703.34;3580192;40;20044;-75
2021/07/14 20:38:10;;;;;;;2.70;1.33;;;;;;;26.36;51.28;101702.84;3577122;40;20566;-75
2021/07/14 20:40:38;;;;;;;2.97;1.50;;;;;;;26.31;51.02;101705.00;3569407;40;20129;-74
2021/07/14 20:43:06;;;;;;;2.88;1.30;;;;;;;26.27;51.45;101703.50;3579791;40;20086;-74
2021/07/14 20:45:35;;;;;;;2.92;1.58;;;;;;;26.20;51.49;101707.56;3581174;40;20092;-75
2021/07/14 20:48:03;;;;;;;2.35;1.52;;;;;;;26.14;51.86;101709.72;3571575;40;20086;-74
2021/07/14 20:50:30;;;;;;;4.72;1.48;;;;;;;26.08;51.72;101715.53;3578837;40;20044;-74
2021/07/14 20:52:57;;;;;;;2.50;1.40;;;;;;;26.02;52.26;101715.13;3564198;40;20068;-74